• Join FlightAware (Why Join?)
  • Login
  • US Flag 
01:22AM EDT


 

Airport Tracker/Info


-or-


 

Live Flight TrackerFlight Track Log ✈ SKW2678 ✈ 16-Jul-2013 ✈ KMRY - KLAX

Flight Track Log - Related Links

Times and Time Zones

All times are in EDT time to prevent confusion due to time zone crossing. See the SKW2678 flight status page for this flight to view local times or setup timezone preferences in your user account.

Time Position Orientation Groundspeed Altitude Reporting Facility
EDT Latitude Longitude Course Direction KTS MPH feet Rate Location/Type
09:11AM 36.5833 -121.8000 133° Southeast 178 205 2,400  Level Northern Cal TRACON
09:12AM 36.5833 -121.7167 90° East 248 285 4,600 2,340 Climbing Northern Cal TRACON
09:15AM 36.4758 -121.5369 127° Southeast 295 339 10,200 1,920 Climbing Oakland Center
09:16AM 36.4233 -121.4547 128° Southeast 309 356 11,100 1,140 Climbing Oakland Center
09:17AM 36.3840 -121.2064 133° Southeast  Level FlightAware Approximate
09:17AM 36.3622 -121.3578 128° Southeast 349 402 12,500  Level Oakland Center
09:18AM 36.2981 -121.2550 128° Southeast 373 429 14,100 1,680 Climbing Oakland Center
09:19AM 36.2342 -121.1533 128° Southeast 375 432 15,900 1,620 Climbing Oakland Center
09:20AM 36.1711 -121.0506 127° Southeast 375 432 17,400 1,380 Climbing Oakland Center
09:21AM 36.1061 -120.9500 129° Southeast 375 432 18,700 1,080 Climbing Oakland Center
09:22AM 36.0400 -120.8461 128° Southeast 380 437 19,600 840 Climbing Oakland Center
09:23AM 35.9719 -120.7392 128° Southeast 393 452 20,400 780 Climbing Oakland Center
09:24AM 35.9017 -120.6289 128° Southeast 404 465 21,200 780 Climbing Oakland Center
09:25AM 35.8303 -120.5194 129° Southeast 408 470 22,000 720 Climbing Oakland Center
09:26AM 35.7583 -120.4092 129° Southeast 411 473 22,700 660 Climbing Oakland Center
09:27AM 35.6872 -120.2975 128° Southeast 411 473 23,400 600 Climbing Oakland Center
09:28AM 35.6139 -120.1864 129° Southeast 414 476 24,000 600 Climbing Oakland Center
09:28AM 35.5625 -120.1283 137° Southeast 419 482 24,400 600 Climbing Los Angeles Center
09:29AM 35.4744 -120.0339 139° Southeast 414 476 25,000 540 Climbing Los Angeles Center
09:30AM 35.3844 -119.9408 140° Southeast 419 482 25,500 480 Climbing Los Angeles Center
09:32AM 35.2956 -119.8467 139° Southeast 420 483 26,000 480 Climbing Los Angeles Center
09:33AM 35.2053 -119.7531 140° Southeast 422 486 26,500 480 Climbing Los Angeles Center
09:34AM 35.1156 -119.6592 139° Southeast 424 488 27,000 240 Climbing Los Angeles Center
09:35AM 35.0056 -119.5456 140° Southeast 429 494 27,000  Level Los Angeles Center
09:36AM 34.9131 -119.4489 139° Southeast 437 503 27,000 -300 Level Los Angeles Center
09:37AM 34.8378 -119.3725 140° Southeast 440 506 26,500 -1,800 Descending Los Angeles Center
09:38AM 34.7197 -119.2506 140° Southeast 460 529 23,400 -2,880 Descending Los Angeles Center
09:39AM 34.6200 -119.1508 141° Southeast 454 522 20,600 -2,640 Descending Los Angeles Center
09:40AM 34.5283 -119.0583 140° Southeast 425 489 18,000 -2,460 Descending Los Angeles Center
09:41AM 34.4433 -118.9692 139° Southeast 397 457 15,600 -2,400 Descending Los Angeles Center
09:42AM 34.3586 -118.8878 142° Southeast 388 447 13,200 -1,800 Descending Los Angeles Center
09:43AM 34.2611 -118.8467 161° South 372 428 12,000 -600 Descending Los Angeles Center
09:44AM 34.1703 -118.8133 163° South 342 394 12,000 -420 Level Los Angeles Center
09:45AM 34.0828 -118.7808 163° South 271 312 11,200 -960 Descending Los Angeles Center
09:46AM 34.0356 -118.7278 137° Southeast 260 299 10,100 -720 Descending Los Angeles Center
09:47AM 34.0275 -118.6367 96° East 254 292 9,800 -720 Descending Los Angeles Center
09:48AM 34.0194 -118.5528 97° East 251 289 8,700 -1,080 Descending Los Angeles Center
09:49AM 34.0117 -118.4714 97° East 244 281 7,600 -1,080 Descending Los Angeles Center
09:50AM 34.0236 -118.4036 78° East 228 262 6,600 -1,260 Descending Los Angeles Center
09:51AM 34.0333 -118.3328 81° East 215 247 5,100 -1,260 Descending Los Angeles Center
09:52AM 34.0425 -118.2792 78° East 208 239 4,100 -540 Descending Los Angeles Center
09:53AM 34.0161 -118.2242 120° Southeast 198 228 4,000 -540 Descending Los Angeles Center
09:54AM 33.9664 -118.2528 206° Southwest 181 208 3,000 -1,080 Descending Los Angeles Center
09:55AM 33.9628 -118.3192 266° West 171 197 1,700 -1,020 Descending Los Angeles Center
09:56AM 33.9569 -118.3667 262° West 158 182 900 -780 Descending Los Angeles Center
09:57AM 33.9517 -118.4158 263° West 149 171 200 -720 Descending Los Angeles Center
09:59AM 33.9425 -118.4081 228° Southwest  Level Estimated
10:06AM 33.9425 -118.4081 228° Southwest  Level Estimated